Time;durP1;ratioP1;P1;durP2;ratioP2;P2;SDS_P1;SDS_P2;PMS_P1;PMS_P2;Temp;Humidity;BMP_temperature;BMP_pressure;BME280_temperature;BME280_humidity;BME280_pressure;Samples;Min_cycle;Max_cycle;Signal;HPM_P1;HPM_P2
2023/04/18 00:01:01;;;;;;;;;;;7.30;99.90;;;;;;4961548;28;19972;-85
2023/04/18 00:03:28;;;;;;;;;;;7.30;99.90;;;;;;4976903;28;19926;-86
2023/04/18 00:05:54;;;;;;;;;;;7.30;99.90;;;;;;4960678;28;20017;-85
2023/04/18 00:08:19;;;;;;;;;;;7.30;99.90;;;;;;4976429;28;19984;-86
2023/04/18 00:10:45;;;;;;;;;;;7.20;99.90;;;;;;4976605;28;19932;-85
2023/04/18 00:13:11;;;;;;;;;;;7.10;99.90;;;;;;4976567;28;19949;-85
2023/04/18 00:15:36;;;;;;;;;;;7.00;99.90;;;;;;4960380;28;19926;-85
2023/04/18 00:18:02;;;;;;;;;;;7.00;99.90;;;;;;4976404;28;19933;-86
2023/04/18 00:20:28;;;;;;;;;;;7.00;99.90;;;;;;4976521;28;19972;-85
2023/04/18 00:22:54;;;;;;;;;;;7.00;99.90;;;;;;4976333;28;19933;-86
2023/04/18 00:25:20;;;;;;;;;;;7.00;99.90;;;;;;4976006;28;19926;-86
2023/04/18 00:27:46;;;;;;;;;;;7.10;99.90;;;;;;4960520;28;19926;-86
2023/04/18 00:30:11;;;;;;;;;;;7.00;99.90;;;;;;4975073;28;19927;-85
2023/04/18 00:32:37;;;;;;;;;;;7.00;99.90;;;;;;4976958;28;19973;-86
2023/04/18 00:35:03;;;;;;;;;;;7.10;99.90;;;;;;4959979;28;20342;-86
2023/04/18 00:37:29;;;;;;;;;;;7.10;99.90;;;;;;4959812;28;19930;-85
2023/04/18 00:39:54;;;;;;;;;;;7.10;99.90;;;;;;4975892;28;20282;-86
2023/04/18 00:42:20;;;;;;;;;;;7.10;99.90;;;;;;4976673;28;19934;-86
2023/04/18 00:44:46;;;;;;;;;;;7.10;99.90;;;;;;4960602;28;19926;-85
2023/04/18 00:47:13;;;;;;;;;;;7.20;99.90;;;;;;4975945;28;19935;-86
2023/04/18 00:49:39;;;;;;;;;;;7.30;99.90;;;;;;4975878;28;19985;-85
2023/04/18 00:52:05;;;;;;;;;;;7.20;99.90;;;;;;4959786;28;19951;-85
2023/04/18 00:54:32;;;;;;;;;;;7.10;99.90;;;;;;4958854;28;20327;-85
2023/04/18 00:56:58;;;;;;;;;;;7.00;99.90;;;;;;4975367;28;19981;-85
2023/04/18 00:59:24;;;;;;;;;;;7.00;99.90;;;;;;4975989;28;20024;-85
2023/04/18 01:01:49;;;;;;;;;;;7.20;99.90;;;;;;4975824;28;19981;-85
2023/04/18 01:04:15;;;;;;;;;;;6.90;99.90;;;;;;4975284;28;20381;-86
2023/04/18 01:06:42;;;;;;;;;;;6.90;99.90;;;;;;4976473;28;19926;-86
2023/04/18 01:09:08;;;;;;;;;;;7.00;99.90;;;;;;4975620;28;19976;-86
2023/04/18 01:11:34;;;;;;;;;;;6.90;99.90;;;;;;4975174;28;19926;-85
2023/04/18 01:14:01;;;;;;;;;;;6.90;99.90;;;;;;4975534;28;20021;-85
2023/04/18 01:16:27;;;;;;;;;;;6.80;99.90;;;;;;4974806;28;20441;-86
2023/04/18 01:18:53;;;;;;;;;;;6.90;99.90;;;;;;4975287;28;19929;-87
2023/04/18 01:21:20;;;;;;;;;;;6.80;99.90;;;;;;4959176;28;20028;-85
2023/04/18 01:23:47;;;;;;;;;;;6.70;99.90;;;;;;4975927;28;19926;-86
2023/04/18 01:26:13;;;;;;;;;;;6.60;99.90;;;;;;4976329;28;19933;-85
2023/04/18 01:28:38;;;;;;;;;;;6.60;99.90;;;;;;4974755;28;20330;-86
2023/04/18 01:31:04;;;;;;;;;;;6.60;99.90;;;;;;4958856;28;20105;-85
2023/04/18 01:33:29;;;;;;;;;;;6.70;99.90;;;;;;4975334;28;19930;-85
2023/04/18 01:35:55;;;;;;;;;;;6.50;99.90;;;;;;4959082;28;20377;-85
2023/04/18 01:38:21;;;;;;;;;;;6.50;99.90;;;;;;4975028;28;19965;-85
2023/04/18 01:40:46;;;;;;;;;;;6.40;99.90;;;;;;4958828;28;20299;-86
2023/04/18 01:43:14;;;;;;;;;;;6.50;99.90;;;;;;4975125;28;20017;-85
2023/04/18 01:45:40;;;;;;;;;;;6.40;99.90;;;;;;4974866;28;19934;-85
2023/04/18 01:48:08;;;;;;;;;;;6.40;99.90;;;;;;4975708;28;19934;-85
2023/04/18 01:50:34;;;;;;;;;;;6.30;99.90;;;;;;4975544;28;20259;-85
2023/04/18 01:52:59;;;;;;;;;;;6.40;99.90;;;;;;4958565;28;19973;-87
2023/04/18 01:55:25;;;;;;;;;;;6.30;99.90;;;;;;4975487;28;19926;-86
2023/04/18 01:57:51;;;;;;;;;;;6.30;99.90;;;;;;4974122;28;20363;-86
2023/04/18 02:00:17;;;;;;;;;;;6.40;99.90;;;;;;4974673;28;20294;-85
2023/04/18 02:02:43;;;;;;;;;;;6.50;99.90;;;;;;4958263;28;19926;-86
2023/04/18 02:05:08;;;;;;;;;;;6.40;99.90;;;;;;4959245;28;19932;-85
2023/04/18 02:07:34;;;;;;;;;;;6.30;99.90;;;;;;4974536;28;19949;-86
2023/04/18 02:10:00;;;;;;;;;;;6.40;99.90;;;;;;4974198;28;19933;-85
2023/04/18 02:12:25;;;;;;;;;;;6.40;99.90;;;;;;4958362;28;19926;-87
2023/04/18 02:14:52;;;;;;;;;;;6.40;99.90;;;;;;4974387;28;19926;-85
2023/04/18 02:17:18;;;;;;;;;;;6.30;99.90;;;;;;4959182;28;19930;-86
2023/04/18 02:19:44;;;;;;;;;;;6.30;99.90;;;;;;4974335;28;20013;-86
2023/04/18 02:22:10;;;;;;;;;;;6.30;99.90;;;;;;4958230;28;19977;-86
2023/04/18 02:24:35;;;;;;;;;;;6.40;99.90;;;;;;4974388;28;19926;-85
2023/04/18 02:27:01;;;;;;;;;;;6.40;99.90;;;;;;4974293;28;19926;-86
2023/04/18 02:29:26;;;;;;;;;;;6.50;99.90;;;;;;4974284;28;19926;-85
2023/04/18 02:31:52;;;;;;;;;;;6.50;99.90;;;;;;4958213;28;19927;-86
2023/04/18 02:34:17;;;;;;;;;;;6.60;99.90;;;;;;4973869;28;19926;-86
2023/04/18 02:36:43;;;;;;;;;;;6.80;99.90;;;;;;4974341;28;19926;-85
2023/04/18 02:39:09;;;;;;;;;;;6.80;99.90;;;;;;4974153;28;20016;-86
2023/04/18 02:41:36;;;;;;;;;;;6.90;99.90;;;;;;4958120;28;19969;-85
2023/04/18 02:44:02;;;;;;;;;;;6.80;99.90;;;;;;4974097;28;20366;-86
2023/04/18 02:46:27;;;;;;;;;;;6.70;99.90;;;;;;4975022;28;19932;-86
2023/04/18 02:48:53;;;;;;;;;;;6.80;99.90;;;;;;4975526;28;20433;-85
2023/04/18 02:51:18;;;;;;;;;;;6.80;99.90;;;;;;4974103;28;20028;-86
2023/04/18 02:53:44;;;;;;;;;;;6.90;99.90;;;;;;4976118;28;19965;-86
2023/04/18 02:56:10;;;;;;;;;;;6.90;99.90;;;;;;4977677;28;19934;-86
2023/04/18 02:58:36;;;;;;;;;;;6.90;99.90;;;;;;4994097;28;20374;-85
2023/04/18 03:01:02;;;;;;;;;;;7.00;99.90;;;;;;4961789;28;19934;-86
2023/04/18 03:03:27;;;;;;;;;;;7.00;99.90;;;;;;4961815;28;20351;-86
2023/04/18 03:05:53;;;;;;;;;;;7.00;99.90;;;;;;4978590;28;19980;-86
2023/04/18 03:08:18;;;;;;;;;;;7.00;99.90;;;;;;4961544;28;20368;-85
2023/04/18 03:10:44;;;;;;;;;;;6.90;99.90;;;;;;4977536;28;19926;-86
2023/04/18 03:13:10;;;;;;;;;;;7.10;99.90;;;;;;4961565;28;19926;-86
2023/04/18 03:15:36;;;;;;;;;;;7.30;99.90;;;;;;4961555;28;19934;-85
2023/04/18 03:18:01;;;;;;;;;;;7.00;99.90;;;;;;4977248;28;19930;-86
2023/04/18 03:20:27;;;;;;;;;;;7.00;99.90;;;;;;4978371;28;20016;-85
2023/04/18 03:22:53;;;;;;;;;;;7.00;99.90;;;;;;4977668;28;19926;-86
2023/04/18 03:25:18;;;;;;;;;;;7.10;99.90;;;;;;4978241;28;19930;-85
2023/04/18 03:27:44;;;;;;;;;;;7.10;99.90;;;;;;4978238;28;20017;-85
2023/04/18 03:30:10;;;;;;;;;;;7.00;99.90;;;;;;4977269;28;19926;-85
2023/04/18 03:32:35;;;;;;;;;;;7.00;99.90;;;;;;4977407;28;19981;-85
2023/04/18 03:35:01;;;;;;;;;;;6.90;99.90;;;;;;4977141;28;19930;-86
2023/04/18 03:37:27;;;;;;;;;;;6.90;99.90;;;;;;4977295;28;20322;-86
2023/04/18 03:39:53;;;;;;;;;;;6.90;99.90;;;;;;4977030;28;19926;-85
2023/04/18 03:42:18;;;;;;;;;;;6.90;99.90;;;;;;4977185;28;19930;-86
2023/04/18 03:44:44;;;;;;;;;;;6.90;99.90;;;;;;4977382;28;19926;-86
2023/04/18 03:47:10;;;;;;;;;;;6.80;99.90;;;;;;4961559;28;19933;-85
2023/04/18 03:49:35;;;;;;;;;;;6.80;99.90;;;;;;4976757;28;19933;-86
2023/04/18 03:52:01;;;;;;;;;;;6.80;99.90;;;;;;4960930;28;19958;-86
2023/04/18 03:54:27;;;;;;;;;;;6.80;99.90;;;;;;4976709;28;20270;-85
2023/04/18 03:56:52;;;;;;;;;;;6.80;99.90;;;;;;4977384;28;20020;-85
2023/04/18 03:59:18;;;;;;;;;;;6.70;99.90;;;;;;4976522;28;20393;-86
2023/04/18 04:01:43;;;;;;;;;;;6.70;99.90;;;;;;4977162;28;19933;-85
2023/04/18 04:04:10;;;;;;;;;;;6.70;99.90;;;;;;4977155;28;19930;-85
2023/04/18 04:06:36;;;;;;;;;;;6.70;99.90;;;;;;4960691;28;20271;-86
2023/04/18 04:09:02;;;;;;;;;;;6.70;99.90;;;;;;4961431;28;19926;-85
2023/04/18 04:11:27;;;;;;;;;;;6.70;99.90;;;;;;4960250;28;19930;-86
2023/04/18 04:13:53;;;;;;;;;;;6.70;99.90;;;;;;4976509;28;19926;-86
2023/04/18 04:16:18;;;;;;;;;;;6.80;99.90;;;;;;4977498;28;19936;-86
2023/04/18 04:18:44;;;;;;;;;;;6.80;99.90;;;;;;4976502;28;19981;-87
2023/04/18 04:21:09;;;;;;;;;;;6.80;99.90;;;;;;4976174;28;19933;-86
2023/04/18 04:23:35;;;;;;;;;;;6.90;99.90;;;;;;4976408;28;19933;-85
2023/04/18 04:26:03;;;;;;;;;;;6.90;99.90;;;;;;4959848;28;19930;-85
2023/04/18 04:28:29;;;;;;;;;;;6.90;99.90;;;;;;4976158;28;19926;-86
2023/04/18 04:30:55;;;;;;;;;;;6.90;99.90;;;;;;4960297;28;19988;-86
2023/04/18 04:33:27;;;;;;;;;;;6.80;99.90;;;;;;4975999;28;19927;-87
2023/04/18 04:35:53;;;;;;;;;;;7.00;99.90;;;;;;4977032;28;20017;-86
2023/04/18 04:38:24;;;;;;;;;;;7.00;99.90;;;;;;4975704;28;19962;-86
2023/04/18 04:40:51;;;;;;;;;;;6.90;99.90;;;;;;4975910;28;20020;-86
2023/04/18 04:43:19;;;;;;;;;;;6.90;99.90;;;;;;4975894;28;19926;-85
2023/04/18 04:45:48;;;;;;;;;;;7.00;99.90;;;;;;4975981;28;20053;-86
2023/04/18 04:48:14;;;;;;;;;;;7.00;99.90;;;;;;4976842;28;20262;-85
2023/04/18 04:50:40;;;;;;;;;;;6.90;99.90;;;;;;4975724;28;19930;-85
2023/04/18 04:53:10;;;;;;;;;;;7.20;99.90;;;;;;4959796;28;19926;-86
2023/04/18 04:55:37;;;;;;;;;;;6.90;99.90;;;;;;4959759;28;19949;-85
2023/04/18 04:58:03;;;;;;;;;;;7.00;99.90;;;;;;4975158;28;20380;-86
2023/04/18 05:00:28;;;;;;;;;;;7.00;99.90;;;;;;4975789;28;20013;-87
2023/04/18 05:02:54;;;;;;;;;;;7.00;99.90;;;;;;4959632;28;20020;-85
2023/04/18 05:05:20;;;;;;;;;;;7.00;99.90;;;;;;4959486;28;19926;-85
2023/04/18 05:07:46;;;;;;;;;;;7.00;99.90;;;;;;4975564;28;19933;-87
2023/04/18 05:10:11;;;;;;;;;;;7.00;99.90;;;;;;4975264;28;20331;-86
2023/04/18 05:12:37;;;;;;;;;;;7.10;99.90;;;;;;4960097;28;19934;-85
2023/04/18 05:15:03;;;;;;;;;;;7.00;99.90;;;;;;4959712;28;19926;-86
2023/04/18 05:17:28;;;;;;;;;;;7.00;99.90;;;;;;4975288;28;19930;-85
2023/04/18 05:19:54;;;;;;;;;;;7.00;99.90;;;;;;4975278;28;20359;-86
2023/04/18 05:22:19;;;;;;;;;;;7.10;99.90;;;;;;4975260;28;19926;-87
2023/04/18 05:24:45;;;;;;;;;;;7.10;99.90;;;;;;4975185;28;19926;-89
2023/04/18 05:27:12;;;;;;;;;;;7.10;99.90;;;;;;4959846;28;19926;-86
2023/04/18 05:29:38;;;;;;;;;;;7.10;99.90;;;;;;4975328;28;19927;-88
2023/04/18 05:32:06;;;;;;;;;;;7.20;99.90;;;;;;4959125;28;19949;-89
2023/04/18 05:34:35;;;;;;;;;;;7.20;99.90;;;;;;4959116;28;19927;-89
2023/04/18 05:37:00;;;;;;;;;;;7.20;99.90;;;;;;4975351;28;19926;-87
2023/04/18 05:39:29;;;;;;;;;;;7.40;99.90;;;;;;4975550;28;19937;-89
2023/04/18 05:41:55;;;;;;;;;;;7.10;99.90;;;;;;4978962;28;20285;-89
2023/04/18 05:44:23;;;;;;;;;;;7.10;99.90;;;;;;4976307;28;20378;-88
2023/04/18 05:46:50;;;;;;;;;;;7.30;99.90;;;;;;4975657;28;19933;-89
2023/04/18 05:49:17;;;;;;;;;;;7.30;99.90;;;;;;4958561;28;20386;-90
2023/04/18 05:51:48;;;;;;;;;;;7.50;99.90;;;;;;4974893;28;19972;-90
2023/04/18 05:54:14;;;;;;;;;;;7.30;99.90;;;;;;4973927;28;19977;-90
2023/04/18 05:56:40;;;;;;;;;;;7.30;99.90;;;;;;4974792;28;19926;-89
2023/04/18 05:59:05;;;;;;;;;;;7.40;99.90;;;;;;4973716;28;19933;-89
2023/04/18 06:01:31;;;;;;;;;;;7.40;99.90;;;;;;4974397;28;19930;-89
2023/04/18 06:03:57;;;;;;;;;;;7.50;99.90;;;;;;4973982;28;19953;-89
2023/04/18 06:06:22;;;;;;;;;;;7.60;99.90;;;;;;4974689;28;19922;-88
2023/04/18 06:08:48;;;;;;;;;;;7.70;99.90;;;;;;4958219;28;19922;-89
2023/04/18 06:11:18;;;;;;;;;;;7.80;99.90;;;;;;4957838;28;19922;-88
2023/04/18 06:13:44;;;;;;;;;;;7.90;99.90;;;;;;4958483;28;19922;-89
2023/04/18 06:16:10;;;;;;;;;;;7.80;99.90;;;;;;4958219;28;20388;-88
2023/04/18 06:18:38;;;;;;;;;;;7.80;99.90;;;;;;4974976;28;19922;-90
2023/04/18 06:21:04;;;;;;;;;;;7.90;99.90;;;;;;4974275;28;19969;-89
2023/04/18 06:23:30;;;;;;;;;;;7.90;99.90;;;;;;4957918;28;19925;-90
2023/04/18 06:25:58;;;;;;;;;;;8.00;99.90;;;;;;4976076;28;19929;-88
2023/04/18 06:28:24;;;;;;;;;;;8.00;99.90;;;;;;4974794;28;19922;-88
2023/04/18 06:30:49;;;;;;;;;;;7.90;99.90;;;;;;4973932;28;19977;-89
2023/04/18 06:33:15;;;;;;;;;;;8.00;99.90;;;;;;4973759;28;20369;-87
2023/04/18 06:35:43;;;;;;;;;;;8.00;99.90;;;;;;4974887;28;19929;-89
2023/04/18 06:38:10;;;;;;;;;;;5.80;99.90;;;;;;4973666;28;20004;-88
2023/04/18 06:40:35;;;;;;;;;;;8.00;99.90;;;;;;4973903;28;20266;-89
2023/04/18 06:43:01;;;;;;;;;;;8.00;99.90;;;;;;4974314;28;19929;-89
2023/04/18 06:45:28;;;;;;;;;;;8.10;99.90;;;;;;4974024;28;19929;-89
2023/04/18 06:47:54;;;;;;;;;;;8.00;99.90;;;;;;4958002;28;19922;-89
2023/04/18 06:50:19;;;;;;;;;;;8.10;99.90;;;;;;4973990;28;19926;-90
2023/04/18 06:52:45;;;;;;;;;;;8.10;99.90;;;;;;4989920;28;20433;-88
2023/04/18 06:55:11;;;;;;;;;;;8.10;99.90;;;;;;4973699;28;19922;-89
2023/04/18 06:57:38;;;;;;;;;;;8.10;99.90;;;;;;4973722;28;19922;-88
2023/04/18 07:00:04;;;;;;;;;;;6.60;99.90;;;;;;4973931;28;19922;-89
2023/04/18 07:02:33;;;;;;;;;;;8.20;99.90;;;;;;4974812;28;20392;-89
2023/04/18 07:04:59;;;;;;;;;;;8.20;99.90;;;;;;4973798;28;19981;-90
2023/04/18 07:07:25;;;;;;;;;;;8.30;99.90;;;;;;4958108;28;19922;-91
2023/04/18 07:09:51;;;;;;;;;;;8.20;99.90;;;;;;4957676;28;19926;-92
2023/04/18 07:12:17;;;;;;;;;;;8.20;99.90;;;;;;4959027;28;20025;-89
2023/04/18 07:14:42;;;;;;;;;;;8.20;99.90;;;;;;4977892;28;19969;-88
2023/04/18 07:17:08;;;;;;;;;;;8.20;99.90;;;;;;4973817;28;19930;-89
2023/04/18 07:19:34;;;;;;;;;;;8.20;99.90;;;;;;4973705;28;19929;-88
2023/04/18 07:22:00;;;;;;;;;;;8.30;99.90;;;;;;4973741;28;20050;-90
2023/04/18 07:24:25;;;;;;;;;;;8.40;99.90;;;;;;4973523;28;19922;-90
2023/04/18 07:26:51;;;;;;;;;;;8.50;99.90;;;;;;4957964;28;20204;-90
2023/04/18 07:29:18;;;;;;;;;;;8.50;99.90;;;;;;4974362;28;20247;-92
2023/04/18 07:31:47;;;;;;;;;;;8.60;99.90;;;;;;4957222;28;19929;-91
2023/04/18 07:34:12;;;;;;;;;;;8.50;99.90;;;;;;4973546;28;19965;-90
2023/04/18 07:36:39;;;;;;;;;;;8.50;99.90;;;;;;4973367;28;20401;-88
2023/04/18 07:39:05;;;;;;;;;;;8.50;99.90;;;;;;4960010;28;20069;-86
2023/04/18 07:41:30;;;;;;;;;;;8.60;99.90;;;;;;4977120;28;20346;-90
2023/04/18 07:43:59;;;;;;;;;;;8.70;99.90;;;;;;4976296;28;19929;-89
2023/04/18 07:46:25;;;;;;;;;;;10.20;99.90;;;;;;4960517;28;19929;-90
2023/04/18 07:48:53;;;;;;;;;;;7.80;99.90;;;;;;4960738;28;19922;-89
2023/04/18 07:51:19;;;;;;;;;;;8.90;99.90;;;;;;4960297;28;19958;-89
2023/04/18 07:53:45;;;;;;;;;;;8.80;99.90;;;;;;4976610;28;19923;-89
2023/04/18 07:56:13;;;;;;;;;;;8.80;99.90;;;;;;4960596;28;19922;-87
2023/04/18 07:58:39;;;;;;;;;;;8.90;99.90;;;;;;4976291;28;19933;-89
2023/04/18 08:01:06;;;;;;;;;;;9.00;99.90;;;;;;4976580;28;19922;-89
2023/04/18 08:03:33;;;;;;;;;;;9.00;99.90;;;;;;4976540;28;19988;-91
2023/04/18 08:06:01;;;;;;;;;;;8.80;99.90;;;;;;4976464;28;20355;-90
2023/04/18 08:08:29;;;;;;;;;;;8.90;99.90;;;;;;4976468;28;19968;-88
2023/04/18 08:10:54;;;;;;;;;;;9.00;99.90;;;;;;4976189;28;19922;-91
2023/04/18 08:13:20;;;;;;;;;;;8.90;99.90;;;;;;4960565;28;20061;-90
2023/04/18 08:15:48;;;;;;;;;;;8.90;99.90;;;;;;4960822;28;19922;-91
2023/04/18 08:18:14;;;;;;;;;;;9.00;99.90;;;;;;4976440;28;20370;-91
2023/04/18 08:20:46;;;;;;;;;;;9.00;99.90;;;;;;4976812;28;19933;-93
2023/04/18 08:23:16;;;;;;;;;;;8.50;99.90;;;;;;4976818;28;20004;-90
2023/04/18 08:25:47;;;;;;;;;;;9.20;99.90;;;;;;4965682;28;20350;-90
2023/04/18 08:28:13;;;;;;;;;;;9.20;99.90;;;;;;4960418;28;20345;-92
2023/04/18 08:30:47;;;;;;;;;;;9.50;99.90;;;;;;4976188;28;19929;-90
2023/04/18 08:33:14;;;;;;;;;;;9.40;99.90;;;;;;4975988;28;19922;-91
2023/04/18 08:35:39;;;;;;;;;;;9.70;99.90;;;;;;4976571;28;20009;-91
2023/04/18 08:38:15;;;;;;;;;;;9.80;99.90;;;;;;4960663;28;19968;-89
2023/04/18 08:40:42;;;;;;;;;;;10.00;99.90;;;;;;4960010;28;19922;-88
2023/04/18 08:43:11;;;;;;;;;;;9.60;99.90;;;;;;4962533;28;19922;-90
2023/04/18 08:45:39;;;;;;;;;;;9.60;99.90;;;;;;4963435;28;20037;-90
2023/04/18 08:48:06;;;;;;;;;;;10.00;99.90;;;;;;4960424;28;19922;-91
2023/04/18 08:50:32;;;;;;;;;;;9.80;99.90;;;;;;4975104;28;19926;-90
2023/04/18 08:52:59;;;;;;;;;;;10.30;99.90;;;;;;4960057;28;19945;-90
2023/04/18 08:55:32;;;;;;;;;;;9.90;99.90;;;;;;4975986;28;19922;-91
2023/04/18 08:57:58;;;;;;;;;;;9.80;99.90;;;;;;4975974;28;19929;-91
2023/04/18 09:00:24;;;;;;;;;;;10.60;99.90;;;;;;4976052;28;19930;-90
2023/04/18 09:02:55;;;;;;;;;;;10.30;99.90;;;;;;4959321;28;20033;-90
2023/04/18 09:05:23;;;;;;;;;;;10.20;99.90;;;;;;4976399;28;19988;-92
2023/04/18 09:07:51;;;;;;;;;;;8.90;99.90;;;;;;4975721;28;19926;-91
2023/04/18 09:10:25;;;;;;;;;;;10.20;99.90;;;;;;4959186;28;19929;-89
2023/04/18 09:12:50;;;;;;;;;;;10.30;99.90;;;;;;4975995;28;20374;-90
2023/04/18 09:15:19;;;;;;;;;;;9.40;99.90;;;;;;4975670;28;19922;-89
2023/04/18 09:17:52;;;;;;;;;;;9.80;99.90;;;;;;4975955;28;19922;-92
2023/04/18 09:20:33;;;;;;;;;;;10.50;99.90;;;;;;4984392;28;19929;-91
2023/04/18 09:23:09;;;;;;;;;;;10.60;99.90;;;;;;4959402;28;19977;-89
2023/04/18 09:25:36;;;;;;;;;;;10.80;99.90;;;;;;4975671;28;19922;-90
2023/04/18 09:28:03;;;;;;;;;;;10.80;99.90;;;;;;4959123;28;20426;-90
2023/04/18 09:30:42;;;;;;;;;;;10.90;99.90;;;;;;4960512;28;20259;-91
2023/04/18 09:33:09;;;;;;;;;;;11.60;99.90;;;;;;4965727;28;19922;-90
2023/04/18 09:35:45;;;;;;;;;;;;;;;;;;;;;
2023/04/18 09:38:14;;;;;;;;;;;10.90;99.90;;;;;;4975986;28;19922;-89
2023/04/18 09:40:40;;;;;;;;;;;11.00;99.90;;;;;;4975358;28;19933;-91
2023/04/18 09:43:19;;;;;;;;;;;11.10;99.90;;;;;;4959393;28;19922;-92
2023/04/18 09:45:53;;;;;;;;;;;11.10;99.90;;;;;;4958907;28;19923;-92
2023/04/18 09:48:19;;;;;;;;;;;11.20;99.90;;;;;;4975870;28;19948;-90
2023/04/18 09:50:45;;;;;;;;;;;11.30;99.90;;;;;;4974575;28;19922;-89
2023/04/18 09:53:12;;;;;;;;;;;11.30;99.90;;;;;;4974823;28;19922;-90
2023/04/18 09:55:38;;;;;;;;;;;11.70;99.90;;;;;;4958337;28;20358;-90
2023/04/18 09:58:07;;;;;;;;;;;11.30;99.90;;;;;;4958102;28;19969;-91
2023/04/18 10:00:34;;;;;;;;;;;11.40;99.90;;;;;;4958255;28;20293;-91
2023/04/18 10:03:09;;;;;;;;;;;11.60;99.90;;;;;;4973935;28;19933;-91
2023/04/18 10:05:37;;;;;;;;;;;11.50;99.90;;;;;;4958007;28;19926;-90
2023/04/18 10:08:03;;;;;;;;;;;11.80;99.90;;;;;;4975017;28;19926;-91
2023/04/18 10:10:31;;;;;;;;;;;11.50;99.90;;;;;;4958144;28;19934;-89
2023/04/18 10:12:57;;;;;;;;;;;11.50;99.90;;;;;;4958273;28;19922;-90
2023/04/18 10:15:24;;;;;;;;;;;11.60;99.90;;;;;;4974822;28;20279;-90
2023/04/18 10:17:53;;;;;;;;;;;11.70;99.90;;;;;;4974201;28;20048;-90
2023/04/18 10:20:21;;;;;;;;;;;11.70;99.90;;;;;;4974126;28;19926;-89
2023/04/18 10:22:50;;;;;;;;;;;11.80;99.90;;;;;;4974809;28;19922;-90
2023/04/18 10:25:34;;;;;;;;;;;11.90;99.90;;;;;;4958569;28;20364;-90
2023/04/18 10:28:01;;;;;;;;;;;11.90;99.90;;;;;;4974039;28;20301;-90
2023/04/18 10:30:43;;;;;;;;;;;11.90;99.90;;;;;;4975040;28;20021;-91
2023/04/18 10:33:24;;;;;;;;;;;11.90;99.90;;;;;;4974089;28;20060;-90
2023/04/18 10:36:00;;;;;;;;;;;12.20;99.90;;;;;;4974269;28;19926;-89
2023/04/18 10:38:26;;;;;;;;;;;12.30;99.90;;;;;;4974148;28;19922;-90
2023/04/18 10:40:52;;;;;;;;;;;12.10;99.90;;;;;;4974697;28;19922;-91
2023/04/18 10:43:18;;;;;;;;;;;12.20;99.90;;;;;;4973965;28;19922;-90
2023/04/18 10:45:44;;;;;;;;;;;12.20;99.90;;;;;;4957940;28;19930;-90
2023/04/18 10:48:23;;;;;;;;;;;12.30;99.90;;;;;;4974274;28;19932;-90
2023/04/18 10:51:07;;;;;;;;;;;12.20;99.90;;;;;;4974331;28;20019;-90
2023/04/18 10:53:33;;;;;;;;;;;12.40;99.90;;;;;;4973811;28;20050;-89
2023/04/18 10:55:59;;;;;;;;;;;12.30;99.90;;;;;;4974040;28;19993;-94
2023/04/18 10:58:25;;;;;;;;;;;12.40;99.90;;;;;;4957547;28;19922;-91
2023/04/18 11:00:51;;;;;;;;;;;12.40;99.90;;;;;;4990347;28;19922;-91
2023/04/18 11:03:19;;;;;;;;;;;12.50;99.90;;;;;;4974627;28;20354;-89
2023/04/18 11:05:45;;;;;;;;;;;12.70;99.90;;;;;;4973965;28;19981;-90
2023/04/18 11:08:21;;;;;;;;;;;12.80;99.90;;;;;;4973823;28;19926;-92
2023/04/18 11:10:55;;;;;;;;;;;12.80;99.90;;;;;;4974677;28;19922;-90
2023/04/18 11:13:21;;;;;;;;;;;12.70;99.90;;;;;;4957792;28;19941;-91
2023/04/18 11:15:46;;;;;;;;;;;12.70;99.90;;;;;;4961613;28;19922;-92
2023/04/18 11:18:14;;;;;;;;;;;12.70;99.90;;;;;;4993698;28;19951;-92
2023/04/18 11:20:48;;;;;;;;;;;12.80;99.90;;;;;;4961648;28;20012;-91
2023/04/18 11:23:23;;;;;;;;;;;12.80;99.90;;;;;;4977048;28;20017;-90
2023/04/18 11:25:52;;;;;;;;;;;13.00;99.90;;;;;;4978711;28;19980;-91
2023/04/18 11:28:19;;;;;;;;;;;13.10;99.90;;;;;;4961187;28;20046;-91
2023/04/18 11:30:45;;;;;;;;;;;13.10;99.90;;;;;;4960922;28;19922;-92
2023/04/18 11:33:11;;;;;;;;;;;13.20;99.90;;;;;;4977321;28;19929;-89
2023/04/18 11:35:41;;;;;;;;;;;13.10;99.90;;;;;;4961305;28;19922;-90
2023/04/18 11:38:10;;;;;;;;;;;12.70;99.90;;;;;;4961090;28;19978;-90
2023/04/18 11:40:38;;;;;;;;;;;12.60;99.90;;;;;;4978152;28;19922;-90
2023/04/18 11:43:04;;;;;;;;;;;12.60;99.90;;;;;;4977103;28;19929;-91
2023/04/18 11:45:30;;;;;;;;;;;12.70;99.90;;;;;;4977932;28;19922;-90
2023/04/18 11:47:59;;;;;;;;;;;13.10;99.90;;;;;;4977392;28;20277;-92
2023/04/18 11:50:27;;;;;;;;;;;13.10;99.90;;;;;;4960717;28;20028;-89
2023/04/18 11:52:54;;;;;;;;;;;13.20;99.90;;;;;;4960969;28;19922;-91
2023/04/18 11:55:43;;;;;;;;;;;13.50;99.90;;;;;;4960569;28;19926;-90
2023/04/18 11:58:11;;;;;;;;;;;13.20;99.90;;;;;;4992584;28;19948;-91
2023/04/18 12:00:42;;;;;;;;;;;13.40;99.90;;;;;;4976949;28;19928;-92
2023/04/18 12:03:26;;;;;;;;;;;13.30;99.90;;;;;;4960845;28;19930;-89
2023/04/18 12:06:04;;;;;;;;;;;13.50;99.90;;;;;;4961572;28;19945;-91
2023/04/18 12:08:30;;;;;;;;;;;13.30;99.90;;;;;;4977268;28;19981;-93
2023/04/18 12:11:00;;;;;;;;;;;13.70;99.90;;;;;;4977207;28;19926;-90
2023/04/18 12:13:30;;;;;;;;;;;13.20;99.90;;;;;;4960418;28;19922;-90
2023/04/18 12:15:56;;;;;;;;;;;13.20;99.90;;;;;;4960637;28;19984;-90
2023/04/18 12:18:22;;;;;;;;;;;13.30;99.90;;;;;;4960444;28;19974;-89
2023/04/18 12:20:51;;;;;;;;;;;13.60;99.90;;;;;;4976450;28;20350;-91
2023/04/18 12:23:37;;;;;;;;;;;13.60;99.90;;;;;;4976374;28;19929;-90
2023/04/18 12:26:10;;;;;;;;;;;13.30;99.90;;;;;;4960328;28;19929;-91
2023/04/18 12:28:36;;;;;;;;;;;12.40;99.90;;;;;;4976494;28;19972;-90
2023/04/18 12:31:05;;;;;;;;;;;13.60;99.90;;;;;;4976901;28;19922;-89
2023/04/18 12:33:30;;;;;;;;;;;13.80;99.40;;;;;;4976280;28;19922;-89
2023/04/18 12:36:12;;;;;;;;;;;13.80;99.90;;;;;;4976980;28;19928;-89
2023/04/18 12:38:40;;;;;;;;;;;14.30;99.90;;;;;;4976737;28;19922;-89
2023/04/18 12:41:09;;;;;;;;;;;13.70;99.90;;;;;;4960606;28;20017;-91
2023/04/18 12:43:35;;;;;;;;;;;13.50;99.90;;;;;;4960014;28;19969;-89
2023/04/18 12:46:01;;;;;;;;;;;12.30;99.90;;;;;;4959816;28;19922;-88
2023/04/18 12:48:27;;;;;;;;;;;13.80;99.90;;;;;;4975673;28;20289;-90
2023/04/18 12:50:58;;;;;;;;;;;13.80;99.90;;;;;;4975693;28;19928;-91
2023/04/18 12:53:23;;;;;;;;;;;14.10;99.90;;;;;;4975346;28;20378;-90
2023/04/18 12:55:51;;;;;;;;;;;14.00;99.90;;;;;;4959597;28;19926;-90
2023/04/18 12:58:17;;;;;;;;;;;13.90;99.90;;;;;;4975964;28;20351;-91
2023/04/18 13:00:43;;;;;;;;;;;14.10;99.90;;;;;;4989301;28;19929;-89
2023/04/18 13:03:08;;;;;;;;;;;14.00;99.90;;;;;;4978784;28;19973;-92
2023/04/18 13:05:37;;;;;;;;;;;13.80;99.90;;;;;;4975983;28;19929;-89
2023/04/18 13:08:05;;;;;;;;;;;13.60;99.90;;;;;;4975784;28;19926;-91
2023/04/18 13:10:31;;;;;;;;;;;13.60;99.90;;;;;;4959501;28;19930;-89
2023/04/18 13:12:59;;;;;;;;;;;13.50;99.90;;;;;;4958984;28;19980;-90
2023/04/18 13:15:26;;;;;;;;;;;13.40;99.90;;;;;;4959938;28;20045;-91
2023/04/18 13:17:51;;;;;;;;;;;13.40;99.90;;;;;;4960227;28;19922;-89
2023/04/18 13:20:21;;;;;;;;;;;13.60;99.90;;;;;;4975070;28;20033;-91
2023/04/18 13:22:46;;;;;;;;;;;13.60;99.90;;;;;;4975235;28;19945;-90
2023/04/18 13:25:12;;;;;;;;;;;13.60;99.90;;;;;;4975931;28;20021;-91
2023/04/18 13:27:39;;;;;;;;;;;13.60;99.90;;;;;;4959461;28;20275;-89
2023/04/18 13:30:05;;;;;;;;;;;14.10;99.90;;;;;;4975115;28;19929;-90
2023/04/18 13:32:31;;;;;;;;;;;14.50;99.90;;;;;;4958089;28;19926;-89
2023/04/18 13:34:57;;;;;;;;;;;13.90;99.90;;;;;;4974997;28;19922;-90
2023/04/18 13:37:23;;;;;;;;;;;13.60;99.90;;;;;;4974407;28;19929;-90
2023/04/18 13:39:51;;;;;;;;;;;13.90;99.90;;;;;;4974371;28;19972;-92
2023/04/18 13:42:18;;;;;;;;;;;13.50;99.90;;;;;;4974494;28;19922;-90
2023/04/18 13:44:44;;;;;;;;;;;14.00;99.90;;;;;;4959308;28;19969;-89
2023/04/18 13:47:20;;;;;;;;;;;13.90;99.90;;;;;;4963696;28;19922;-91
2023/04/18 13:49:48;;;;;;;;;;;12.70;99.90;;;;;;4964164;28;19922;-90
2023/04/18 13:52:21;;;;;;;;;;;14.00;99.90;;;;;;4974733;28;20362;-91
2023/04/18 13:54:52;;;;;;;;;;;14.70;99.90;;;;;;4959828;28;19922;-90
2023/04/18 13:57:20;;;;;;;;;;;14.30;99.20;;;;;;4959093;28;20266;-91
2023/04/18 13:59:46;;;;;;;;;;;13.90;99.80;;;;;;4959706;28;19929;-91
2023/04/18 14:02:14;;;;;;;;;;;13.80;99.90;;;;;;4958244;28;20362;-89
2023/04/18 14:04:40;;;;;;;;;;;13.80;99.90;;;;;;4959287;28;19922;-90
2023/04/18 14:07:08;;;;;;;;;;;14.10;99.90;;;;;;4959102;28;19922;-92
2023/04/18 14:09:42;;;;;;;;;;;13.80;99.50;;;;;;4975232;28;19926;-91
2023/04/18 14:12:07;;;;;;;;;;;13.90;99.90;;;;;;4974495;28;19922;-91
2023/04/18 14:14:35;;;;;;;;;;;14.10;99.90;;;;;;4958202;28;20027;-91
2023/04/18 14:17:01;;;;;;;;;;;13.90;99.90;;;;;;4958487;28;19929;-91
2023/04/18 14:19:29;;;;;;;;;;;14.20;99.80;;;;;;4974112;28;20445;-89
2023/04/18 14:21:55;;;;;;;;;;;13.60;99.80;;;;;;4974280;28;20020;-89
2023/04/18 14:24:23;;;;;;;;;;;13.70;99.90;;;;;;4973909;28;19968;-90
2023/04/18 14:26:49;;;;;;;;;;;13.60;99.90;;;;;;4974618;28;20374;-89